Time;durP1;ratioP1;P1;durP2;ratioP2;P2;SDS_P1;SDS_P2;PMS_P1;PMS_P2;Temp;Humidity;BMP_temperature;BMP_pressure;BME280_temperature;BME280_humidity;BME280_pressure;Samples;Min_cycle;Max_cycle;Signal;HPM_P1;HPM_P2
2023/05/04 00:01:09;;;;;;;6.60;2.93;;;5.30;99.90;;;;;;5075353;28;20523;-52
2023/05/04 00:03:37;;;;;;;7.00;2.10;;;5.20;99.90;;;;;;5081147;28;20463;-53
2023/05/04 00:06:04;;;;;;;5.73;2.73;;;5.20;99.90;;;;;;5086955;28;20484;-52
2023/05/04 00:08:31;;;;;;;6.83;2.83;;;5.30;99.90;;;;;;5074081;28;20538;-52
2023/05/04 00:10:57;;;;;;;8.43;3.07;;;5.20;99.90;;;;;;5070829;28;21009;-56
2023/05/04 00:13:24;;;;;;;4.10;2.70;;;5.20;99.90;;;;;;5074403;28;20540;-52
2023/05/04 00:15:50;;;;;;;11.13;3.10;;;5.20;99.90;;;;;;5073708;28;20610;-53
2023/05/04 00:18:17;;;;;;;6.90;2.60;;;5.20;99.90;;;;;;5065996;28;20464;-52
2023/05/04 00:20:45;;;;;;;8.70;3.03;;;5.20;99.90;;;;;;5076885;28;20523;-53
2023/05/04 00:23:11;;;;;;;8.13;2.97;;;5.20;99.90;;;;;;5073633;28;20474;-52
2023/05/04 00:25:38;;;;;;;8.10;3.17;;;5.20;99.90;;;;;;5054952;28;20540;-53
2023/05/04 00:28:05;;;;;;;6.23;2.80;;;5.20;99.90;;;;;;5058409;28;21008;-53
2023/05/04 00:30:31;;;;;;;6.80;3.03;;;5.30;99.90;;;;;;5070643;28;20510;-52
2023/05/04 00:32:58;;;;;;;14.90;3.70;;;5.30;99.90;;;;;;5072600;28;20553;-52
2023/05/04 00:35:25;;;;;;;11.40;3.77;;;5.20;99.90;;;;;;5072859;28;21028;-52
2023/05/04 00:37:53;;;;;;;6.13;2.67;;;5.20;99.90;;;;;;5073985;28;20495;-52
2023/05/04 00:40:19;;;;;;;9.10;2.93;;;5.20;99.90;;;;;;5071007;28;20624;-52
2023/05/04 00:42:46;;;;;;;16.57;3.57;;;5.20;99.90;;;;;;5072533;28;20439;-52
2023/05/04 00:45:14;;;;;;;8.10;3.27;;;5.20;99.90;;;;;;5074279;28;20450;-52
2023/05/04 00:47:41;;;;;;;6.27;3.00;;;5.20;99.90;;;;;;5060189;28;20460;-53
2023/05/04 00:50:08;;;;;;;7.93;3.07;;;5.10;99.90;;;;;;5069504;28;20560;-52
2023/05/04 00:52:36;;;;;;;7.70;2.90;;;5.10;99.90;;;;;;5066290;28;20461;-53
2023/05/04 00:55:04;;;;;;;5.40;2.80;;;5.10;99.90;;;;;;5067844;28;20546;-53
2023/05/04 00:57:31;;;;;;;6.10;2.83;;;5.00;99.90;;;;;;5068975;28;20918;-53
2023/05/04 00:59:57;;;;;;;10.17;3.43;;;5.00;99.90;;;;;;5073841;28;20579;-51
2023/05/04 01:02:24;;;;;;;7.57;3.07;;;4.90;99.90;;;;;;5058453;28;20564;-52
2023/05/04 01:04:51;;;;;;;12.10;3.33;;;4.90;99.90;;;;;;5071034;28;20998;-52
2023/05/04 01:07:23;;;;;;;9.03;2.97;;;4.90;99.90;;;;;;5066066;28;20551;-52
2023/05/04 01:09:59;;;;;;;5.23;2.93;;;4.80;99.90;;;;;;5072279;28;20532;-52
2023/05/04 01:12:35;;;;;;;9.40;3.23;;;4.90;99.90;;;;;;5073876;28;20565;-52
2023/05/04 01:15:03;;;;;;;8.80;3.20;;;4.80;99.90;;;;;;5065595;28;20486;-53
2023/05/04 01:17:29;;;;;;;5.03;3.00;;;4.80;99.90;;;;;;5075087;28;20504;-53
2023/05/04 01:19:56;;;;;;;3.40;2.60;;;4.80;99.90;;;;;;5075172;28;20594;-52
2023/05/04 01:22:24;;;;;;;8.07;2.90;;;4.70;99.90;;;;;;5078027;28;20514;-52
2023/05/04 01:24:51;;;;;;;7.07;3.33;;;4.70;99.90;;;;;;5064963;28;20497;-53
2023/05/04 01:27:22;;;;;;;12.03;3.90;;;4.70;99.90;;;;;;5079556;28;20552;-53
2023/05/04 01:29:56;;;;;;;9.60;3.40;;;4.70;99.90;;;;;;5072154;28;20534;-53
2023/05/04 01:32:24;;;;;;;9.77;3.27;;;4.60;99.90;;;;;;5069345;28;20561;-52
2023/05/04 01:34:50;;;;;;;5.60;3.27;;;4.60;99.90;;;;;;5057197;28;20552;-52
2023/05/04 01:37:17;;;;;;;4.20;3.17;;;4.60;99.90;;;;;;5060155;28;20454;-53
2023/05/04 01:39:45;;;;;;;5.87;3.30;;;4.60;99.90;;;;;;5062565;28;20482;-52
2023/05/04 01:42:11;;;;;;;8.60;2.97;;;4.50;99.90;;;;;;5058953;28;20945;-53
2023/05/04 01:44:38;;;;;;;9.87;3.50;;;4.50;99.90;;;;;;5074195;28;20987;-53
2023/05/04 01:47:05;;;;;;;7.10;3.60;;;4.50;99.90;;;;;;5077189;28;20510;-53
2023/05/04 01:49:31;;;;;;;10.03;3.30;;;4.50;99.90;;;;;;5073500;28;20491;-58
2023/05/04 01:51:58;;;;;;;10.37;3.10;;;4.50;99.90;;;;;;5075609;28;20564;-52
2023/05/04 01:54:25;;;;;;;7.47;3.10;;;4.40;99.90;;;;;;5077137;28;20492;-53
2023/05/04 01:56:53;;;;;;;9.80;2.80;;;4.40;99.90;;;;;;5065975;28;20958;-52
2023/05/04 01:59:20;;;;;;;13.97;3.57;;;4.50;99.90;;;;;;5068165;28;21032;-52
2023/05/04 02:01:46;;;;;;;6.10;3.07;;;4.50;99.90;;;;;;5060896;28;20571;-53
2023/05/04 02:04:13;;;;;;;9.23;3.43;;;4.40;99.90;;;;;;5070788;28;20555;-52
2023/05/04 02:06:40;;;;;;;10.60;3.23;;;4.40;99.90;;;;;;5060254;28;21017;-53
2023/05/04 02:09:06;;;;;;;6.00;3.40;;;4.50;99.90;;;;;;5066575;28;20505;-52
2023/05/04 02:11:33;;;;;;;9.93;4.10;;;4.50;99.90;;;;;;5062509;28;20634;-52
2023/05/04 02:14:01;;;;;;;7.57;3.37;;;4.40;99.90;;;;;;5062285;28;20491;-52
2023/05/04 02:16:27;;;;;;;7.30;4.17;;;4.30;99.90;;;;;;5063907;28;20555;-52
2023/05/04 02:18:54;;;;;;;9.97;3.50;;;4.30;99.90;;;;;;5063721;28;20555;-52
2023/05/04 02:21:20;;;;;;;7.97;3.17;;;4.40;99.90;;;;;;5067471;28;20598;-52
2023/05/04 02:23:47;;;;;;;6.63;2.97;;;4.30;99.90;;;;;;5064280;28;21020;-53
2023/05/04 02:26:13;;;;;;;4.10;3.33;;;4.20;99.90;;;;;;5070185;28;20551;-53
2023/05/04 02:28:40;;;;;;;6.00;3.10;;;4.20;99.90;;;;;;5066654;28;20551;-52
2023/05/04 02:31:08;;;;;;;8.30;3.33;;;4.20;99.90;;;;;;5065255;28;20577;-53
2023/05/04 02:33:34;;;;;;;5.70;3.00;;;4.20;99.90;;;;;;5069019;28;20551;-52
2023/05/04 02:36:01;;;;;;;8.57;4.00;;;4.10;99.90;;;;;;5065451;28;20466;-52
2023/05/04 02:38:28;;;;;;;10.23;3.53;;;4.20;99.90;;;;;;5052404;28;20592;-52
2023/05/04 02:40:57;;;;;;;8.23;3.60;;;4.20;99.90;;;;;;5066997;28;20571;-53
2023/05/04 02:43:23;;;;;;;10.63;4.20;;;4.20;99.90;;;;;;5069831;28;20464;-52
2023/05/04 02:45:50;;;;;;;8.17;3.70;;;4.10;99.90;;;;;;5067390;28;20552;-52
2023/05/04 02:48:18;;;;;;;4.77;3.00;;;4.00;99.90;;;;;;5064013;28;20937;-52
2023/05/04 02:50:45;;;;;;;5.67;3.10;;;4.10;99.90;;;;;;5059811;28;20571;-52
2023/05/04 02:53:12;;;;;;;5.47;3.07;;;4.00;99.90;;;;;;5061990;28;20462;-52
2023/05/04 02:55:38;;;;;;;8.17;4.07;;;4.00;99.90;;;;;;5061144;28;21024;-53
2023/05/04 02:58:05;;;;;;;7.20;3.80;;;4.00;99.90;;;;;;5063065;28;21026;-53
2023/05/04 03:00:31;;;;;;;10.70;4.50;;;4.00;99.90;;;;;;5070032;28;20488;-52
2023/05/04 03:02:58;;;;;;;8.40;4.20;;;3.90;99.90;;;;;;5065735;28;20544;-52
2023/05/04 03:05:26;;;;;;;12.13;3.90;;;3.90;99.90;;;;;;5059165;28;21009;-53
2023/05/04 03:07:52;;;;;;;7.73;3.60;;;3.80;99.90;;;;;;5066678;28;21011;-52
2023/05/04 03:10:19;;;;;;;11.83;3.73;;;3.80;99.90;;;;;;5069493;28;20549;-53
2023/05/04 03:12:45;;;;;;;9.10;4.00;;;3.80;99.90;;;;;;5077846;22;20586;-55
2023/05/04 03:15:12;;;;;;;10.23;3.50;;;3.80;99.90;;;;;;5067840;28;20555;-54
2023/05/04 03:17:39;;;;;;;5.80;2.97;;;3.70;99.90;;;;;;5065439;28;20550;-54
2023/05/04 03:20:06;;;;;;;12.17;4.07;;;3.80;99.90;;;;;;5062151;28;20571;-54
2023/05/04 03:22:34;;;;;;;8.77;3.80;;;3.80;99.90;;;;;;5065770;28;20561;-54
2023/05/04 03:25:01;;;;;;;8.03;3.47;;;3.70;99.90;;;;;;5061522;28;20492;-54
2023/05/04 03:27:27;;;;;;;8.53;3.23;;;3.70;99.90;;;;;;5058993;28;20541;-53
2023/05/04 03:29:54;;;;;;;4.97;3.70;;;3.70;99.90;;;;;;5054897;28;21207;-54
2023/05/04 03:32:20;;;;;;;10.43;4.07;;;3.60;99.90;;;;;;5062728;28;20515;-54
2023/05/04 03:34:47;;;;;;;5.03;3.23;;;3.60;99.90;;;;;;5064653;28;20539;-54
2023/05/04 03:37:13;;;;;;;9.13;3.30;;;3.60;99.90;;;;;;5057525;28;20562;-54
2023/05/04 03:39:41;;;;;;;6.17;3.00;;;3.60;99.90;;;;;;5062499;28;20573;-55
2023/05/04 03:42:08;;;;;;;5.03;3.07;;;3.60;99.90;;;;;;5074263;28;20574;-54
2023/05/04 03:44:34;;;;;;;8.53;3.50;;;3.60;99.90;;;;;;5066833;28;20540;-54
2023/05/04 03:47:01;;;;;;;8.67;3.60;;;3.60;99.90;;;;;;5063400;28;20550;-54
2023/05/04 03:49:27;;;;;;;6.23;3.17;;;3.60;99.90;;;;;;5071163;28;20874;-53
2023/05/04 03:51:54;;;;;;;11.20;3.87;;;3.50;99.90;;;;;;5065326;28;21056;-54
2023/05/04 03:54:20;;;;;;;6.13;3.30;;;3.50;99.90;;;;;;5068772;28;20553;-54
2023/05/04 03:56:48;;;;;;;8.97;4.00;;;3.70;99.90;;;;;;5064863;28;20558;-53
2023/05/04 03:59:15;;;;;;;7.07;2.53;;;3.70;99.90;;;;;;5064332;28;20944;-54
2023/05/04 04:01:41;;;;;;;7.80;3.53;;;3.60;99.90;;;;;;5075561;28;20577;-53
2023/05/04 04:04:08;;;;;;;6.20;3.23;;;3.60;99.90;;;;;;5073365;28;20464;-54
2023/05/04 04:06:34;;;;;;;5.80;3.50;;;3.60;99.90;;;;;;5071232;28;20516;-54
2023/05/04 04:09:01;;;;;;;7.47;3.40;;;3.70;99.90;;;;;;5067782;28;20482;-54
2023/05/04 04:11:28;;;;;;;7.05;3.28;;;3.70;99.90;;;;;;5083471;28;20457;-57
2023/05/04 04:13:55;;;;;;;5.87;3.10;;;3.60;99.90;;;;;;5094128;28;20209;-56
2023/05/04 04:16:22;;;;;;;9.73;3.40;;;3.70;99.90;;;;;;5091674;28;20448;-56
2023/05/04 04:18:49;;;;;;;11.80;4.23;;;3.70;99.90;;;;;;5096215;28;20448;-55
2023/05/04 04:21:15;;;;;;;8.40;2.90;;;3.80;99.90;;;;;;5072878;28;20972;-55
2023/05/04 04:23:42;;;;;;;8.13;3.13;;;3.90;99.90;;;;;;5063947;28;20554;-56
2023/05/04 04:26:09;;;;;;;6.60;3.00;;;3.90;99.90;;;;;;5061064;28;20500;-54
2023/05/04 04:28:35;;;;;;;9.03;3.40;;;4.00;99.90;;;;;;5064464;28;20959;-54
2023/05/04 04:31:03;;;;;;;5.93;3.20;;;4.10;99.90;;;;;;5061372;28;20484;-50
2023/05/04 04:33:30;;;;;;;7.27;3.80;;;4.20;99.90;;;;;;5066889;28;20590;-51
2023/05/04 04:35:56;;;;;;;10.40;3.00;;;4.30;99.90;;;;;;5063690;28;22430;-51
2023/05/04 04:38:23;;;;;;;7.63;3.17;;;4.30;99.90;;;;;;5060083;28;20547;-51
2023/05/04 04:40:50;;;;;;;6.50;3.80;;;4.50;99.90;;;;;;5057974;28;20484;-51
2023/05/04 04:43:16;;;;;;;7.47;3.80;;;4.50;99.90;;;;;;5065927;28;20921;-51
2023/05/04 04:45:44;;;;;;;9.33;3.27;;;4.60;99.90;;;;;;5065182;28;20547;-51
2023/05/04 04:48:11;;;;;;;11.47;3.53;;;4.70;99.90;;;;;;5067852;28;20462;-54
2023/05/04 04:50:38;;;;;;;11.77;2.90;;;4.80;1.40;;;;;;5062136;28;20480;-54
2023/05/04 04:53:05;;;;;;;8.23;3.40;;;5.00;99.90;;;;;;5064386;28;20924;-55
2023/05/04 04:55:33;;;;;;;8.50;3.40;;;5.10;99.90;;;;;;5063376;28;21024;-54
2023/05/04 04:57:59;;;;;;;4.33;3.20;;;5.10;99.90;;;;;;5073371;28;20450;-54
2023/05/04 05:00:26;;;;;;;9.47;3.10;;;5.30;99.90;;;;;;5066591;28;20564;-54
2023/05/04 05:02:53;;;;;;;11.20;3.23;;;5.40;99.90;;;;;;5069326;28;20570;-54
2023/05/04 05:05:21;;;;;;;9.63;3.47;;;5.50;99.90;;;;;;5067789;28;20458;-53
2023/05/04 05:07:47;;;;;;;9.40;3.30;;;5.60;99.90;;;;;;5069330;28;20811;-54
2023/05/04 05:10:14;;;;;;;8.87;3.10;;;5.80;99.90;;;;;;5062560;28;20567;-54
2023/05/04 05:12:41;;;;;;;7.30;3.20;;;5.90;99.90;;;;;;5075208;28;21066;-54
2023/05/04 05:15:09;;;;;;;7.23;3.10;;;6.10;99.90;;;;;;5064024;28;20607;-54
2023/05/04 05:17:36;;;;;;;5.63;2.57;;;6.20;99.90;;;;;;5070929;28;21028;-51
2023/05/04 05:20:04;;;;;;;9.40;3.37;;;6.30;99.90;;;;;;5061890;28;20461;-51
2023/05/04 05:22:32;;;;;;;22.60;3.47;;;6.40;99.90;;;;;;5061783;28;20514;-51
2023/05/04 05:24:59;;;;;;;10.17;3.43;;;6.60;99.90;;;;;;5064213;28;21025;-51
2023/05/04 05:27:25;;;;;;;8.40;3.00;;;6.70;99.90;;;;;;5068052;28;20990;-51
2023/05/04 05:29:52;;;;;;;12.83;3.50;;;6.80;28.00;;;;;;5058516;28;20460;-51
2023/05/04 05:32:19;;;;;;;6.23;2.70;;;6.90;29.70;;;;;;5067579;28;20606;-52
2023/05/04 05:34:46;;;;;;;6.33;3.23;;;7.10;46.80;;;;;;5069491;28;20489;-51
2023/05/04 05:37:12;;;;;;;8.07;4.63;;;7.20;56.00;;;;;;5063356;28;20459;-51
2023/05/04 05:39:40;;;;;;;7.03;2.47;;;7.40;59.90;;;;;;5057350;28;20887;-51
2023/05/04 05:42:07;;;;;;;14.60;3.67;;;7.50;72.70;;;;;;5061626;28;20579;-50
2023/05/04 05:44:36;;;;;;;3.40;3.03;;;7.60;88.60;;;;;;5065313;28;20467;-51
2023/05/04 05:47:02;;;;;;;7.80;3.07;;;7.80;92.30;;;;;;5067853;28;20964;-51
2023/05/04 05:49:29;;;;;;;12.30;3.20;;;7.90;99.90;;;;;;5064483;28;20586;-51
2023/05/04 05:51:55;;;;;;;5.97;2.60;;;8.10;99.90;;;;;;5077866;28;20504;-52
2023/05/04 05:54:22;;;;;;;6.17;2.80;;;8.20;99.90;;;;;;5087260;28;20464;-52
2023/05/04 05:56:50;;;;;;;7.00;2.87;;;8.20;99.90;;;;;;5083957;28;20453;-52
2023/05/04 05:59:17;;;;;;;4.97;3.00;;;8.30;99.90;;;;;;5084789;28;20471;-52
2023/05/04 06:01:43;;;;;;;8.43;3.20;;;8.50;99.90;;;;;;5066316;28;20512;-53
2023/05/04 06:04:10;;;;;;;8.83;2.90;;;8.50;99.90;;;;;;5055437;28;20550;-52
2023/05/04 06:06:36;;;;;;;5.03;2.60;;;8.60;99.90;;;;;;5060447;28;20501;-52
2023/05/04 06:09:04;;;;;;;12.10;3.70;;;8.80;99.90;;;;;;5064398;28;20455;-52
2023/05/04 06:11:31;;;;;;;6.53;2.90;;;9.00;99.90;;;;;;5063674;28;20534;-52
2023/05/04 06:13:59;;;;;;;8.87;3.40;;;9.30;99.90;;;;;;5059541;28;20955;-52
2023/05/04 06:16:25;;;;;;;8.00;3.23;;;9.30;20.20;;;;;;5057579;28;20549;-51
2023/05/04 06:18:52;;;;;;;3.33;2.90;;;9.40;30.90;;;;;;5059147;28;20968;-52
2023/05/04 06:21:19;;;;;;;5.10;3.10;;;9.40;22.40;;;;;;5069630;28;20516;-52
2023/05/04 06:23:46;;;;;;;13.67;3.83;;;9.60;99.90;;;;;;5067810;28;20546;-51
2023/05/04 06:26:13;;;;;;;10.20;4.30;;;9.80;25.40;;;;;;5064060;28;20461;-51
2023/05/04 06:28:40;;;;;;;10.97;5.30;;;9.80;52.30;;;;;;5063853;28;20495;-52
2023/05/04 06:31:08;;;;;;;11.50;5.63;;;10.00;41.20;;;;;;5060919;28;20496;-52
2023/05/04 06:33:35;;;;;;;9.57;4.10;;;10.20;50.90;;;;;;5062516;28;20451;-52
2023/05/04 06:36:01;;;;;;;7.00;3.40;;;10.50;63.70;;;;;;5057803;28;20465;-51
2023/05/04 06:38:28;;;;;;;6.83;3.17;;;10.80;83.80;;;;;;5066398;28;20811;-52
2023/05/04 06:40:54;;;;;;;8.10;3.20;;;10.80;99.90;;;;;;5066424;28;20506;-52
2023/05/04 06:43:21;;;;;;;10.30;3.30;;;10.80;99.90;;;;;;5064114;28;20543;-52
2023/05/04 06:45:47;;;;;;;9.33;3.97;;;11.00;99.90;;;;;;5063988;28;20564;-52
2023/05/04 06:48:15;;;;;;;15.90;3.20;;;11.20;99.90;;;;;;5060620;28;20903;-51
2023/05/04 06:50:42;;;;;;;8.93;3.13;;;11.50;99.90;;;;;;5068147;28;20942;-52
2023/05/04 06:53:10;;;;;;;4.53;3.00;;;11.70;99.90;;;;;;5065640;28;21060;-52
2023/05/04 06:55:37;;;;;;;17.50;4.80;;;11.90;99.90;;;;;;5056791;28;20464;-52
2023/05/04 06:58:04;;;;;;;8.40;3.50;;;12.40;99.90;;;;;;5068796;28;20539;-52
2023/05/04 07:00:31;;;;;;;4.60;2.87;;;12.60;99.90;;;;;;5065242;28;20456;-52
2023/05/04 07:02:57;;;;;;;6.50;3.43;;;12.90;99.90;;;;;;5068149;28;20573;-52
2023/05/04 07:05:25;;;;;;;5.40;3.60;;;13.10;99.90;;;;;;5063530;28;20552;-52
2023/05/04 07:07:52;;;;;;;14.27;3.77;;;13.10;99.90;;;;;;5068090;28;20464;-52
2023/05/04 07:10:19;;;;;;;7.60;3.70;;;13.40;99.90;;;;;;5061855;28;20472;-52
2023/05/04 07:12:45;;;;;;;8.30;3.83;;;13.70;99.90;;;;;;5066837;28;20493;-52
2023/05/04 07:15:12;;;;;;;7.53;2.90;;;13.40;99.90;;;;;;5060086;28;21036;-52
2023/05/04 07:17:39;;;;;;;7.50;3.00;;;13.30;99.90;;;;;;5058863;28;20488;-51
2023/05/04 07:20:06;;;;;;;15.03;3.10;;;13.40;99.90;;;;;;5066908;28;20955;-52
2023/05/04 07:22:34;;;;;;;6.60;2.70;;;13.40;99.90;;;;;;5061934;28;20491;-52
2023/05/04 07:25:01;;;;;;;6.20;2.57;;;13.70;99.90;;;;;;5068026;28;20537;-52
2023/05/04 07:27:28;;;;;;;19.77;3.37;;;13.40;99.90;;;;;;5058461;28;20830;-52
2023/05/04 07:29:55;;;;;;;8.10;2.73;;;13.40;99.90;;;;;;5060617;28;20885;-52
2023/05/04 07:32:21;;;;;;;8.70;2.97;;;13.50;99.90;;;;;;5058931;28;20504;-52
2023/05/04 07:34:48;;;;;;;9.53;3.50;;;13.60;99.90;;;;;;5068646;28;20475;-52
2023/05/04 07:37:15;;;;;;;18.43;3.53;;;13.50;99.90;;;;;;5062547;28;20504;-51
2023/05/04 07:39:43;;;;;;;9.33;3.17;;;13.60;99.90;;;;;;5065746;28;20466;-52
2023/05/04 07:42:11;;;;;;;7.57;3.80;;;13.80;99.90;;;;;;5060531;28;20517;-52
2023/05/04 07:44:37;;;;;;;4.67;3.07;;;13.80;99.90;;;;;;5067161;28;20460;-52
2023/05/04 07:47:05;;;;;;;6.27;3.03;;;14.20;99.90;;;;;;5067910;28;20494;-52
2023/05/04 07:49:32;;;;;;;13.57;3.23;;;14.40;99.90;;;;;;5065536;28;20460;-52
2023/05/04 07:51:58;;;;;;;3.87;2.23;;;14.20;99.90;;;;;;5060769;28;20507;-53
2023/05/04 07:54:25;;;;;;;11.90;3.13;;;14.10;99.90;;;;;;5069565;28;20460;-52
2023/05/04 07:56:53;;;;;;;9.70;3.67;;;14.10;99.90;;;;;;5069022;28;20567;-52
2023/05/04 07:59:20;;;;;;;6.13;2.97;;;14.20;99.90;;;;;;5064295;28;20497;-52
2023/05/04 08:01:47;;;;;;;6.80;2.73;;;14.30;99.90;;;;;;5063518;28;20494;-52
2023/05/04 08:04:13;;;;;;;5.13;2.40;;;14.40;99.90;;;;;;5057542;28;20465;-52
2023/05/04 08:06:40;;;;;;;5.80;3.10;;;14.40;99.90;;;;;;5069563;28;21003;-52
2023/05/04 08:09:07;;;;;;;7.40;2.57;;;14.60;99.90;;;;;;5051804;28;20560;-52
2023/05/04 08:11:33;;;;;;;9.03;3.10;;;14.80;99.90;;;;;;5063497;28;20507;-52
2023/05/04 08:14:01;;;;;;;11.27;3.47;;;15.20;99.90;;;;;;5069255;28;20451;-52
2023/05/04 08:16:28;;;;;;;4.77;2.33;;;15.60;99.90;;;;;;5066256;28;20460;-52
2023/05/04 08:18:55;;;;;;;5.63;2.70;;;16.30;99.90;;;;;;5066100;28;20491;-53
2023/05/04 08:21:22;;;;;;;5.50;2.90;;;16.10;99.90;;;;;;5073327;28;20520;-51
2023/05/04 08:23:49;;;;;;;13.40;3.17;;;16.80;99.90;;;;;;5092843;28;20454;-52
2023/05/04 08:26:16;;;;;;;10.40;2.33;;;16.80;99.90;;;;;;5084582;28;20471;-56
2023/05/04 08:28:44;;;;;;;10.90;3.87;;;16.60;99.90;;;;;;5080124;28;20463;-52
2023/05/04 08:31:12;;;;;;;8.20;3.50;;;16.80;99.90;;;;;;5082301;28;20454;-56
2023/05/04 08:33:38;;;;;;;8.10;3.07;;;16.30;99.90;;;;;;5072050;28;20464;-52
2023/05/04 08:36:07;;;;;;;7.47;3.10;;;16.80;99.90;;;;;;5062062;28;20498;-53
2023/05/04 08:38:34;;;;;;;7.93;3.30;;;17.00;99.90;;;;;;5068280;28;20490;-52
2023/05/04 08:41:02;;;;;;;24.97;2.60;;;17.50;99.90;;;;;;5067256;28;20464;-53
2023/05/04 08:43:29;;;;;;;12.63;2.80;;;17.60;99.90;;;;;;5062621;28;20461;-52
2023/05/04 08:45:56;;;;;;;7.50;3.10;;;17.50;99.90;;;;;;5066958;28;20463;-52
2023/05/04 08:48:24;;;;;;;5.80;2.60;;;17.80;99.90;;;;;;5062835;28;20881;-52
2023/05/04 08:50:51;;;;;;;12.73;3.57;;;18.00;99.90;;;;;;5073974;28;20498;-52
2023/05/04 08:53:21;;;;;;;3.67;2.27;;;18.00;99.90;;;;;;5064521;28;20516;-52
2023/05/04 08:55:48;;;;;;;6.20;3.13;;;17.90;99.90;;;;;;5066337;28;20471;-52
2023/05/04 08:58:18;;;;;;;4.60;2.47;;;18.80;99.90;;;;;;5063766;28;20500;-53
2023/05/04 09:00:45;;;;;;;12.30;2.90;;;19.00;99.90;;;;;;5062654;28;20488;-52
2023/05/04 09:03:13;;;;;;;9.23;2.70;;;19.70;99.90;;;;;;5068488;28;20488;-51
2023/05/04 09:05:44;;;;;;;10.53;2.77;;;20.00;91.40;;;;;;5069384;28;21016;-53
2023/05/04 09:08:11;;;;;;;5.57;2.60;;;20.30;92.50;;;;;;5074330;28;20441;-51
2023/05/04 09:10:38;;;;;;;8.90;2.90;;;20.30;90.30;;;;;;5056291;28;20539;-52
2023/05/04 09:13:04;;;;;;;13.33;3.27;;;20.90;20.00;;;;;;5079928;22;20537;-52
2023/05/04 09:15:31;;;;;;;7.50;2.70;;;20.60;20.30;;;;;;5087506;28;20452;-51
2023/05/04 09:18:01;;;;;;;5.70;3.40;;;20.60;74.30;;;;;;5090277;28;20483;-51
2023/05/04 09:20:28;;;;;;;7.97;2.83;;;20.70;86.60;;;;;;5088305;28;21001;-51
2023/05/04 09:23:05;;;;;;;6.40;3.17;;;20.50;77.10;;;;;;5090871;28;20494;-52
2023/05/04 09:25:32;;;;;;;4.20;2.50;;;21.10;83.90;;;;;;5086788;28;20460;-52
2023/05/04 09:27:59;;;;;;;6.10;3.53;;;20.40;85.60;;;;;;5092299;28;20498;-53
2023/05/04 09:30:26;;;;;;;11.47;3.30;;;20.60;95.10;;;;;;5090301;28;20553;-51
2023/05/04 09:32:54;;;;;;;15.73;3.17;;;20.70;83.10;;;;;;5086776;28;20472;-51
2023/05/04 09:35:28;;;;;;;12.50;2.87;;;20.20;99.90;;;;;;5088448;28;20909;-52
2023/05/04 09:37:55;;;;;;;12.03;3.03;;;20.00;87.70;;;;;;5084394;28;20459;-52
2023/05/04 09:40:31;;;;;;;7.73;4.50;;;21.30;21.10;;;;;;5088752;28;21022;-53
2023/05/04 09:42:59;;;;;;;14.27;7.13;;;21.40;20.00;;;;;;5084294;28;22518;-52
2023/05/04 09:45:27;;;;;;;5.63;2.90;;;21.20;20.80;;;;;;5085618;28;20514;-51
2023/05/04 09:47:54;;;;;;;4.47;2.63;;;21.00;23.60;;;;;;5085676;28;20571;-52
2023/05/04 09:50:24;;;;;;;5.13;3.10;;;20.80;22.10;;;;;;5082178;28;20464;-52
2023/05/04 09:52:51;;;;;;;10.90;3.60;;;20.40;95.10;;;;;;5082829;28;21009;-52
2023/05/04 09:55:19;;;;;;;8.40;2.80;;;20.00;80.60;;;;;;5086564;28;20457;-51
2023/05/04 09:57:48;;;;;;;6.57;3.60;;;20.60;21.40;;;;;;5089404;28;20511;-51
2023/05/04 10:00:17;;;;;;;7.37;2.90;;;21.30;23.30;;;;;;5080866;28;20965;-51
2023/05/04 10:02:45;;;;;;;12.10;5.07;;;20.60;20.90;;;;;;5084777;28;20508;-52
2023/05/04 10:05:15;;;;;;;6.90;3.10;;;20.60;21.00;;;;;;5086431;28;20462;-52
2023/05/04 10:07:43;;;;;;;7.30;3.10;;;21.30;20.80;;;;;;5082301;28;20551;-52
2023/05/04 10:10:12;;;;;;;7.93;3.10;;;20.80;24.20;;;;;;5084428;28;20463;-52
2023/05/04 10:12:38;;;;;;;11.50;3.50;;;21.00;84.80;;;;;;5089835;28;20989;-53
2023/05/04 10:15:08;;;;;;;13.70;3.43;;;21.40;23.40;;;;;;5091921;28;20966;-51
2023/05/04 10:17:57;;;;;;;9.23;3.23;;;21.00;25.10;;;;;;5085326;28;20486;-52
2023/05/04 10:20:51;;;;;;;9.80;4.07;;;20.70;71.70;;;;;;5085968;28;20460;-53
2023/05/04 10:23:48;;;;;;;5.50;2.90;;;21.00;24.50;;;;;;5087067;28;20492;-50
2023/05/04 10:26:29;;;;;;;10.73;3.63;;;21.00;21.00;;;;;;5085920;28;20480;-50
2023/05/04 10:29:06;;;;;;;7.17;3.60;;;21.00;20.60;;;;;;5084592;28;20483;-50
2023/05/04 10:31:42;;;;;;;10.50;2.93;;;20.20;22.90;;;;;;5086241;28;20515;-50
2023/05/04 10:34:09;;;;;;;6.23;3.40;;;20.40;22.00;;;;;;5079527;28;20491;-50
2023/05/04 10:36:37;;;;;;;15.23;4.40;;;20.00;20.90;;;;;;5090047;28;20498;-51
2023/05/04 10:39:04;;;;;;;8.40;2.80;;;20.10;21.10;;;;;;5085646;28;20457;-51
2023/05/04 10:41:31;;;;;;;4.40;2.87;;;19.80;23.40;;;;;;5086372;28;20478;-50
2023/05/04 10:44:03;;;;;;;8.00;3.10;;;20.80;22.30;;;;;;5085766;28;20461;-51
2023/05/04 10:46:30;;;;;;;15.20;3.97;;;21.20;24.10;;;;;;5085070;28;20525;-50
2023/05/04 10:48:58;;;;;;;7.43;2.90;;;21.40;24.50;;;;;;5092036;28;20495;-51
2023/05/04 10:51:26;;;;;;;9.87;3.50;;;21.00;25.50;;;;;;5102148;28;20953;-51
2023/05/04 10:53:53;;;;;;;9.90;3.73;;;20.20;26.20;;;;;;5091758;28;20866;-50
2023/05/04 10:56:21;;;;;;;17.90;3.30;;;21.00;27.40;;;;;;5091325;28;20460;-50
2023/05/04 10:58:48;;;;;;;8.43;3.33;;;20.50;26.60;;;;;;5090518;28;20555;-50
2023/05/04 11:01:15;;;;;;;6.97;3.40;;;20.70;24.80;;;;;;5088120;28;20894;-51
2023/05/04 11:03:41;;;;;;;7.53;2.73;;;21.10;27.00;;;;;;5088832;28;20479;-50
2023/05/04 11:06:17;;;;;;;6.30;3.30;;;21.40;29.70;;;;;;5090444;28;20476;-51
2023/05/04 11:08:45;;;;;;;9.73;3.37;;;21.70;29.00;;;;;;5088366;28;20542;-51
2023/05/04 11:11:12;;;;;;;11.00;2.90;;;21.60;26.90;;;;;;5091903;28;20440;-51
2023/05/04 11:13:43;;;;;;;13.07;3.30;;;20.90;29.30;;;;;;5081647;28;20495;-50
2023/05/04 11:16:11;;;;;;;6.17;3.07;;;21.10;28.90;;;;;;5088643;28;20487;-51
2023/05/04 11:18:38;;;;;;;8.10;3.87;;;20.90;26.50;;;;;;5087674;28;22140;-51
2023/05/04 11:21:04;;;;;;;4.30;3.23;;;20.70;25.50;;;;;;5088037;28;20484;-50
2023/05/04 11:23:32;;;;;;;9.93;3.47;;;20.20;27.20;;;;;;5087399;28;20484;-50
2023/05/04 11:26:05;;;;;;;10.83;3.70;;;20.30;27.10;;;;;;5081302;28;20948;-51
2023/05/04 11:28:33;;;;;;;10.80;3.17;;;20.20;26.20;;;;;;5083613;28;20448;-51
2023/05/04 11:31:00;;;;;;;7.40;3.10;;;20.60;20.90;;;;;;5089160;28;21003;-50
2023/05/04 11:33:26;;;;;;;5.50;3.23;;;20.80;23.40;;;;;;5088097;28;20464;-50
2023/05/04 11:36:00;;;;;;;13.23;3.30;;;21.30;25.90;;;;;;5087807;28;20465;-50
2023/05/04 11:38:26;;;;;;;14.77;3.27;;;20.80;26.20;;;;;;5090475;28;20558;-51
2023/05/04 11:40:54;;;;;;;6.40;3.47;;;20.50;26.10;;;;;;5086166;28;20484;-50
2023/05/04 11:43:21;;;;;;;7.00;3.33;;;20.50;27.60;;;;;;5080766;28;20887;-51
2023/05/04 11:45:49;;;;;;;4.80;3.03;;;20.80;29.90;;;;;;5087567;28;20468;-50
2023/05/04 11:48:16;;;;;;;11.93;4.57;;;21.00;29.00;;;;;;5089125;28;20455;-50
2023/05/04 11:50:45;;;;;;;12.37;3.80;;;21.00;25.90;;;;;;5080915;28;20495;-50
2023/05/04 11:53:12;;;;;;;4.80;3.10;;;21.50;24.50;;;;;;5085805;28;20504;-50
2023/05/04 11:55:40;;;;;;;4.30;3.40;;;21.00;27.10;;;;;;5084660;28;20460;-50
2023/05/04 11:58:09;;;;;;;8.70;3.37;;;20.90;27.70;;;;;;5085743;28;21020;-50
2023/05/04 12:00:38;;;;;;;7.13;3.40;;;20.80;28.10;;;;;;5083593;28;20511;-50
2023/05/04 12:03:05;;;;;;;14.33;4.20;;;20.80;27.00;;;;;;5084969;28;20595;-50
2023/05/04 12:05:32;;;;;;;5.67;3.10;;;21.00;27.80;;;;;;5084473;28;20566;-51
2023/05/04 12:07:59;;;;;;;4.60;3.30;;;20.90;28.80;;;;;;5092177;28;20529;-54
2023/05/04 12:10:27;;;;;;;10.87;3.63;;;20.90;24.90;;;;;;5091944;28;20514;-50
2023/05/04 12:12:54;;;;;;;6.20;3.50;;;20.90;25.10;;;;;;5089589;28;20557;-50
2023/05/04 12:15:30;;;;;;;7.10;3.43;;;20.90;27.60;;;;;;5091759;28;20557;-50
2023/05/04 12:17:56;;;;;;;5.20;3.27;;;20.10;24.60;;;;;;5087247;28;20571;-51
2023/05/04 12:20:24;;;;;;;12.20;3.17;;;20.40;26.90;;;;;;5092614;28;20498;-51
2023/05/04 12:22:51;;;;;;;11.53;3.63;;;20.60;27.30;;;;;;5092900;28;20509;-52
2023/05/04 12:25:18;;;;;;;15.67;4.13;;;20.40;26.10;;;;;;5096107;28;20498;-50
2023/05/04 12:27:45;;;;;;;19.33;3.67;;;20.50;26.30;;;;;;5091214;28;20842;-50
2023/05/04 12:30:12;;;;;;;5.63;3.30;;;20.30;23.10;;;;;;5085428;28;20488;-50
2023/05/04 12:32:40;;;;;;;14.77;3.33;;;20.50;20.80;;;;;;5088755;28;20480;-50
2023/05/04 12:35:07;;;;;;;10.27;3.00;;;19.80;26.00;;;;;;5090765;28;20555;-51
2023/05/04 12:37:34;;;;;;;5.17;3.20;;;20.90;20.40;;;;;;5092925;28;20460;-52
2023/05/04 12:40:01;;;;;;;9.60;3.50;;;21.00;25.00;;;;;;5090271;28;20513;-52
2023/05/04 12:42:27;;;;;;;10.40;3.00;;;21.30;23.30;;;;;;5087931;28;20503;-52
2023/05/04 12:44:54;;;;;;;4.97;3.00;;;21.40;25.90;;;;;;5091681;28;20515;-51
2023/05/04 12:47:23;;;;;;;9.23;3.37;;;21.60;25.80;;;;;;5090492;28;20920;-51
2023/05/04 12:49:51;;;;;;;15.43;3.50;;;21.00;28.10;;;;;;5090000;28;20472;-52
2023/05/04 12:52:17;;;;;;;6.00;3.30;;;21.50;29.40;;;;;;5092042;28;20981;-52